Time;durP1;ratioP1;P1;durP2;ratioP2;P2;SDS_P1;SDS_P2;PMS_P1;PMS_P2;Temp;Humidity;BMP_temperature;BMP_pressure;BME280_temperature;BME280_humidity;BME280_pressure;Samples;Min_cycle;Max_cycle;Signal;HPM_P1;HPM_P2
2021/01/11 00:01:23;;;;;;;;;;;-0.80;99.90;;;;;;5092054;28;19928;-70
2021/01/11 00:03:49;;;;;;;;;;;-0.70;99.90;;;;;;5092446;28;19924;-70
2021/01/11 00:06:15;;;;;;;;;;;-0.70;99.90;;;;;;5091741;28;19924;-69
2021/01/11 00:08:41;;;;;;;;;;;-0.60;99.90;;;;;;5072159;28;19924;-70
2021/01/11 00:11:07;;;;;;;;;;;-0.60;99.90;;;;;;5071912;28;20304;-70
2021/01/11 00:13:33;;;;;;;;;;;-0.60;99.90;;;;;;5072365;28;19935;-70
2021/01/11 00:16:00;;;;;;;;;;;-0.50;99.90;;;;;;5072322;28;19924;-71
2021/01/11 00:18:26;;;;;;;;;;;-0.50;99.90;;;;;;5072090;28;20342;-72
2021/01/11 00:20:52;;;;;;;;;;;-0.50;99.90;;;;;;5071762;28;19924;-69
2021/01/11 00:23:18;;;;;;;;;;;-0.50;99.90;;;;;;5072178;28;19925;-69
2021/01/11 00:25:44;;;;;;;;;;;-0.50;99.90;;;;;;5075861;28;20376;-71
2021/01/11 00:28:10;;;;;;;;;;;-0.50;99.90;;;;;;5092409;28;19931;-71
2021/01/11 00:30:36;;;;;;;;;;;-0.50;99.90;;;;;;5073696;28;19970;-71
2021/01/11 00:33:03;;;;;;;;;;;-0.50;99.90;;;;;;5071829;28;19925;-72
2021/01/11 00:35:29;;;;;;;;;;;-0.60;99.90;;;;;;5071906;28;19989;-71
2021/01/11 00:37:55;;;;;;;;;;;-0.50;99.90;;;;;;5071912;28;20389;-71
2021/01/11 00:40:21;;;;;;;;;;;-0.50;99.90;;;;;;5071732;28;19925;-72
2021/01/11 00:42:47;;;;;;;;;;;-0.40;99.90;;;;;;5071966;28;20556;-71
2021/01/11 00:45:13;;;;;;;;;;;-0.50;99.90;;;;;;5072355;28;19924;-71
2021/01/11 00:47:39;;;;;;;;;;;-0.50;99.90;;;;;;5075877;28;19928;-71
2021/01/11 00:50:07;;;;;;;;;;;-0.50;99.90;;;;;;5091111;28;19924;-71
2021/01/11 00:52:34;;;;;;;;;;;-0.50;99.90;;;;;;5095721;28;20419;-72
2021/01/11 00:55:00;;;;;;;;;;;-0.50;99.90;;;;;;5096088;28;19936;-71
2021/01/11 00:57:26;;;;;;;;;;;-0.50;99.90;;;;;;5084743;28;19958;-71
2021/01/11 00:59:52;;;;;;;;;;;-0.50;99.90;;;;;;5075178;28;19930;-71
2021/01/11 01:02:18;;;;;;;;;;;-0.60;99.90;;;;;;5075389;28;19924;-71
2021/01/11 01:04:44;;;;;;;;;;;-0.60;99.90;;;;;;5075531;28;19924;-71
2021/01/11 01:07:11;;;;;;;;;;;-0.60;99.90;;;;;;5075384;28;19955;-72
2021/01/11 01:09:37;;;;;;;;;;;-0.50;99.90;;;;;;5075453;28;19932;-71
2021/01/11 01:12:03;;;;;;;;;;;-0.50;99.90;;;;;;5074729;28;19929;-72
2021/01/11 01:14:29;;;;;;;;;;;-0.50;99.90;;;;;;5075350;28;19932;-72
2021/01/11 01:16:55;;;;;;;;;;;-0.50;99.90;;;;;;5075312;28;19925;-72
2021/01/11 01:19:21;;;;;;;;;;;-0.50;99.90;;;;;;5083078;28;19924;-72
2021/01/11 01:21:47;;;;;;;;;;;-0.40;99.90;;;;;;5095290;28;20377;-72
2021/01/11 01:24:14;;;;;;;;;;;-0.40;99.90;;;;;;5088303;28;19928;-72
2021/01/11 01:26:40;;;;;;;;;;;-0.30;99.90;;;;;;5075421;28;20008;-71
2021/01/11 01:29:06;;;;;;;;;;;-0.30;99.90;;;;;;5075018;28;19931;-71
2021/01/11 01:31:32;;;;;;;;;;;-0.30;99.90;;;;;;5074517;28;20427;-71
2021/01/11 01:33:58;;;;;;;;;;;-0.20;99.90;;;;;;5074874;28;19928;-71
2021/01/11 01:36:24;;;;;;;;;;;-0.20;99.90;;;;;;5075052;28;20554;-71
2021/01/11 01:38:50;;;;;;;;;;;-0.20;99.90;;;;;;5074876;28;19924;-71
2021/01/11 01:41:17;;;;;;;;;;;-0.20;99.90;;;;;;5074511;28;20525;-71
2021/01/11 01:43:43;;;;;;;;;;;-0.10;99.90;;;;;;5074731;28;19928;-71
2021/01/11 01:46:12;;;;;;;;;;;-0.10;99.90;;;;;;5074709;28;19925;-71
2021/01/11 01:48:39;;;;;;;;;;;-0.10;99.90;;;;;;5074566;28;19924;-71
2021/01/11 01:51:05;;;;;;;;;;;0.00;99.90;;;;;;5074228;28;19924;-72
2021/01/11 01:53:31;;;;;;;;;;;0.00;99.90;;;;;;5094243;28;20530;-71
2021/01/11 01:55:57;;;;;;;;;;;0.00;99.90;;;;;;5094743;28;20380;-71
2021/01/11 01:58:23;;;;;;;;;;;0.00;99.90;;;;;;5094511;28;19954;-71
2021/01/11 02:00:50;;;;;;;;;;;0.90;99.90;;;;;;5094352;28;19977;-71
2021/01/11 02:03:16;;;;;;;;;;;0.00;99.90;;;;;;5093706;28;19977;-71
2021/01/11 02:05:42;;;;;;;;;;;0.00;99.90;;;;;;5093769;28;19924;-71
2021/01/11 02:08:10;;;;;;;;;;;0.10;99.90;;;;;;5094498;28;19924;-71
2021/01/11 02:10:42;;;;;;;;;;;0.10;99.90;;;;;;5093777;28;19924;-71
2021/01/11 02:13:13;;;;;;;;;;;0.10;99.90;;;;;;5094226;28;19925;-71
2021/01/11 02:15:43;;;;;;;;;;;0.20;99.90;;;;;;5094310;28;19924;-71
2021/01/11 02:18:11;;;;;;;;;;;0.20;99.90;;;;;;5094482;28;19954;-71
2021/01/11 02:20:52;;;;;;;;;;;0.20;99.90;;;;;;5078757;28;20117;-71
2021/01/11 02:23:42;;;;;;;;;;;0.20;99.90;;;;;;5073970;28;19991;-71
2021/01/11 02:26:09;;;;;;;;;;;0.20;99.90;;;;;;5074167;28;19924;-72
2021/01/11 02:28:43;;;;;;;;;;;0.20;99.90;;;;;;5073921;28;20296;-72
2021/01/11 02:31:11;;;;;;;;;;;0.20;99.90;;;;;;5073546;28;19928;-72
2021/01/11 02:33:37;;;;;;;;;;;0.30;99.90;;;;;;5073816;28;19971;-71
2021/01/11 02:36:05;;;;;;;;;;;0.30;99.90;;;;;;5074167;28;20150;-72
2021/01/11 02:38:31;;;;;;;;;;;0.30;99.90;;;;;;5093841;28;19978;-71
2021/01/11 02:40:57;;;;;;;;;;;0.30;99.90;;;;;;5093755;28;19924;-71
2021/01/11 02:43:23;;;;;;;;;;;0.30;99.90;;;;;;5093807;28;20309;-72
2021/01/11 02:45:49;;;;;;;;;;;0.40;99.90;;;;;;5093838;28;19924;-72
2021/01/11 02:48:18;;;;;;;;;;;0.40;99.90;;;;;;5093091;28;19924;-71
2021/01/11 02:50:48;;;;;;;;;;;0.40;99.90;;;;;;5091540;28;19928;-72
2021/01/11 02:53:19;;;;;;;;;;;0.40;99.90;;;;;;5093639;28;19935;-71
2021/01/11 02:55:48;;;;;;;;;;;0.40;99.90;;;;;;5093512;28;19924;-72
2021/01/11 02:58:19;;;;;;;;;;;0.40;99.90;;;;;;5093436;28;20314;-71
2021/01/11 03:00:46;;;;;;;;;;;0.40;99.90;;;;;;5093142;28;20319;-72
2021/01/11 03:03:13;;;;;;;;;;;0.40;99.90;;;;;;5093356;28;19927;-71
2021/01/11 03:05:40;;;;;;;;;;;0.40;99.90;;;;;;5093026;28;20408;-71
2021/01/11 03:08:07;;;;;;;;;;;0.40;99.90;;;;;;5091900;28;22283;-71
2021/01/11 03:10:33;;;;;;;;;;;0.40;99.90;;;;;;5093027;28;19978;-71
2021/01/11 03:12:59;;;;;;;;;;;0.40;99.90;;;;;;5093145;28;19970;-71
2021/01/11 03:15:25;;;;;;;;;;;0.40;99.90;;;;;;5082868;28;19970;-71
2021/01/11 03:17:51;;;;;;;;;;;0.40;99.90;;;;;;5073085;28;19928;-71
2021/01/11 03:20:17;;;;;;;;;;;0.40;99.90;;;;;;5072780;28;19983;-72
2021/01/11 03:22:44;;;;;;;;;;;0.40;99.90;;;;;;5072840;28;19925;-71
2021/01/11 03:25:10;;;;;;;;;;;0.40;99.90;;;;;;5073110;28;19929;-71
2021/01/11 03:27:36;;;;;;;;;;;0.40;99.90;;;;;;5072748;28;19924;-71
2021/01/11 03:30:03;;;;;;;;;;;0.40;99.90;;;;;;5072775;28;19924;-71
2021/01/11 03:32:29;;;;;;;;;;;0.40;99.90;;;;;;5072685;28;19932;-71
2021/01/11 03:34:55;;;;;;;;;;;0.30;99.90;;;;;;5072970;28;19924;-72
2021/01/11 03:37:21;;;;;;;;;;;0.30;99.90;;;;;;5072682;28;20418;-71
2021/01/11 03:39:48;;;;;;;;;;;0.30;99.90;;;;;;5072489;28;19928;-71
2021/01/11 03:42:14;;;;;;;;;;;0.30;99.90;;;;;;5075297;28;19932;-71
2021/01/11 03:44:41;;;;;;;;;;;0.30;99.90;;;;;;5092783;28;20426;-72
2021/01/11 03:47:07;;;;;;;;;;;0.30;99.90;;;;;;5092998;28;19928;-71
2021/01/11 03:49:33;;;;;;;;;;;0.30;99.90;;;;;;5092656;28;19939;-71
2021/01/11 03:52:02;;;;;;;;;;;0.30;99.90;;;;;;5092356;28;19924;-72
2021/01/11 03:54:29;;;;;;;;;;;0.30;99.90;;;;;;5082569;28;20412;-71
2021/01/11 03:56:56;;;;;;;;;;;0.30;99.90;;;;;;5072304;28;19924;-72
2021/01/11 03:59:22;;;;;;;;;;;0.20;99.90;;;;;;5072344;28;20471;-72
2021/01/11 04:01:48;;;;;;;;;;;0.20;99.90;;;;;;5072127;28;19924;-72
2021/01/11 04:04:14;;;;;;;;;;;0.20;99.90;;;;;;5072673;28;19929;-72
2021/01/11 04:06:40;;;;;;;;;;;0.20;99.90;;;;;;5072345;28;19924;-72
2021/01/11 04:09:06;;;;;;;;;;;0.20;99.90;;;;;;5072445;28;19924;-72
2021/01/11 04:11:32;;;;;;;;;;;0.20;99.90;;;;;;5087602;28;19931;-72
2021/01/11 04:13:59;;;;;;;;;;;0.20;99.90;;;;;;5092621;28;20293;-72
2021/01/11 04:16:25;;;;;;;;;;;0.20;99.90;;;;;;5092563;28;20281;-72
2021/01/11 04:18:51;;;;;;;;;;;0.10;99.90;;;;;;5092463;28;19961;-72
2021/01/11 04:21:17;;;;;;;;;;;0.10;99.90;;;;;;5096004;28;19943;-72
2021/01/11 04:23:43;;;;;;;;;;;0.10;99.90;;;;;;5096433;28;20300;-72
2021/01/11 04:26:10;;;;;;;;;;;0.10;99.90;;;;;;5096357;28;19924;-73
2021/01/11 04:28:36;;;;;;;;;;;0.10;99.90;;;;;;5096073;28;19931;-71
2021/01/11 04:31:03;;;;;;;;;;;0.00;99.90;;;;;;5096320;28;19931;-72
2021/01/11 04:33:29;;;;;;;;;;;0.00;99.90;;;;;;5096243;28;20163;-72
2021/01/11 04:35:55;;;;;;;;;;;0.00;99.90;;;;;;5096105;28;19931;-70
2021/01/11 04:38:21;;;;;;;;;;;0.00;99.90;;;;;;5087458;28;19924;-70
2021/01/11 04:40:47;;;;;;;;;;;0.00;99.90;;;;;;5075694;28;19924;-73
2021/01/11 04:43:15;;;;;;;;;;;0.00;99.90;;;;;;5075557;28;20423;-73
2021/01/11 04:45:41;;;;;;;;;;;0.00;99.90;;;;;;5075813;28;20000;-76
2021/01/11 04:48:08;;;;;;;;;;;0.00;99.90;;;;;;5075871;28;19960;-71
2021/01/11 04:50:35;;;;;;;;;;;0.00;99.90;;;;;;5075456;28;20285;-71
2021/01/11 04:53:01;;;;;;;;;;;-0.10;99.90;;;;;;5075577;28;20385;-70
2021/01/11 04:55:28;;;;;;;;;;;-0.10;99.90;;;;;;5075695;28;19970;-71
2021/01/11 04:57:55;;;;;;;;;;;0.00;99.90;;;;;;5075699;28;19932;-70
2021/01/11 05:00:22;;;;;;;;;;;-0.10;99.90;;;;;;5075400;28;19947;-70
2021/01/11 05:02:56;;;;;;;;;;;-0.10;99.90;;;;;;5080940;28;19931;-71
2021/01/11 05:05:23;;;;;;;;;;;-0.10;99.90;;;;;;5092407;28;20007;-71
2021/01/11 05:07:49;;;;;;;;;;;-0.10;99.90;;;;;;5089344;28;20300;-72
2021/01/11 05:10:20;;;;;;;;;;;-0.10;99.90;;;;;;5095424;28;19924;-74
2021/01/11 05:12:51;;;;;;;;;;;-0.10;99.90;;;;;;5095714;28;19925;-71
2021/01/11 05:15:18;;;;;;;;;;;-0.10;99.90;;;;;;5095731;28;19924;-74
2021/01/11 05:17:45;;;;;;;;;;;-0.20;99.90;;;;;;5087949;28;19935;-74
2021/01/11 05:20:11;;;;;;;;;;;-0.10;99.90;;;;;;5074788;28;20378;-72
2021/01/11 05:22:38;;;;;;;;;;;-0.20;99.90;;;;;;5075357;28;19924;-75
2021/01/11 05:25:14;;;;;;;;;;;-0.20;99.90;;;;;;5075136;28;19924;-73
2021/01/11 05:27:40;;;;;;;;;;;-0.20;99.90;;;;;;5075263;28;20473;-70
2021/01/11 05:30:09;;;;;;;;;;;-0.20;99.90;;;;;;5074988;28;19924;-74
2021/01/11 05:32:35;;;;;;;;;;;-0.20;99.90;;;;;;5075993;28;21416;-70
2021/01/11 05:35:01;;;;;;;;;;;0.00;99.90;;;;;;5095113;28;19928;-73
2021/01/11 05:37:34;;;;;;;;;;;0.00;99.90;;;;;;5095105;28;20406;-72
2021/01/11 05:40:05;;;;;;;;;;;-0.10;99.90;;;;;;5094874;28;19924;-69
2021/01/11 05:42:31;;;;;;;;;;;-0.10;99.90;;;;;;5095067;28;19931;-69
2021/01/11 05:45:08;;;;;;;;;;;-0.10;99.90;;;;;;5079187;28;19925;-72
2021/01/11 05:47:34;;;;;;;;;;;-0.10;99.90;;;;;;5074521;28;19943;-71
2021/01/11 05:50:06;;;;;;;;;;;-0.10;99.90;;;;;;5088570;28;20028;-70
2021/01/11 05:52:33;;;;;;;;;;;-0.10;99.90;;;;;;5094862;28;19924;-70
2021/01/11 05:54:59;;;;;;;;;;;-0.10;99.90;;;;;;5094741;28;19924;-70
2021/01/11 05:57:26;;;;;;;;;;;-0.10;99.90;;;;;;5094960;28;20380;-70
2021/01/11 05:59:52;;;;;;;;;;;-0.10;99.90;;;;;;5094450;28;19924;-75
2021/01/11 06:02:18;;;;;;;;;;;-0.10;99.90;;;;;;5094202;28;19969;-71
2021/01/11 06:04:44;;;;;;;;;;;-0.10;99.90;;;;;;5094521;28;20392;-70
2021/01/11 06:07:10;;;;;;;;;;;-0.20;99.90;;;;;;5094562;28;19925;-72
2021/01/11 06:09:38;;;;;;;;;;;-0.20;99.90;;;;;;5094607;28;19931;-72
2021/01/11 06:12:06;;;;;;;;;;;-0.20;99.90;;;;;;5094012;28;19935;-73
2021/01/11 06:14:34;;;;;;;;;;;-0.20;99.90;;;;;;5094321;28;19969;-71
2021/01/11 06:17:00;;;;;;;;;;;-0.20;99.90;;;;;;5093863;28;19924;-73
2021/01/11 06:19:26;;;;;;;;;;;-0.20;99.90;;;;;;5094472;28;19928;-72
2021/01/11 06:21:52;;;;;;;;;;;-0.30;99.90;;;;;;5093621;28;19928;-74
2021/01/11 06:24:19;;;;;;;;;;;-0.30;99.90;;;;;;5094258;28;19947;-73
2021/01/11 06:26:45;;;;;;;;;;;-0.30;99.90;;;;;;5094203;28;20459;-70
2021/01/11 06:29:27;;;;;;;;;;;-0.30;99.90;;;;;;5094177;28;19931;-71
2021/01/11 06:31:56;;;;;;;;;;;-0.30;99.90;;;;;;5093764;28;19935;-70
2021/01/11 06:34:32;;;;;;;;;;;-0.30;99.90;;;;;;5094151;28;19936;-71
2021/01/11 06:36:58;;;;;;;;;;;-0.30;99.90;;;;;;5084036;28;19925;-75
2021/01/11 06:39:30;;;;;;;;;;;-0.30;99.90;;;;;;5073640;28;19928;-72
2021/01/11 06:41:57;;;;;;;;;;;-0.30;99.90;;;;;;5073165;28;19939;-73
2021/01/11 06:44:23;;;;;;;;;;;-0.20;99.90;;;;;;5073741;28;19978;-71
2021/01/11 06:46:49;;;;;;;;;;;-0.30;99.90;;;;;;5073407;28;20373;-73
2021/01/11 06:49:26;;;;;;;;;;;-0.30;99.90;;;;;;5073510;28;19954;-72
2021/01/11 06:52:04;;;;;;;;;;;-0.20;99.90;;;;;;5084178;28;19928;-71
2021/01/11 06:54:38;;;;;;;;;;;-0.30;99.90;;;;;;5093674;28;20338;-71
2021/01/11 06:57:11;;;;;;;;;;;-0.20;99.90;;;;;;5093522;28;19928;-71
2021/01/11 06:59:37;;;;;;;;;;;-0.20;99.90;;;;;;5093609;28;19924;-72
2021/01/11 07:02:17;;;;;;;;;;;-0.20;99.90;;;;;;5093230;28;19955;-70
2021/01/11 07:04:44;;;;;;;;;;;-0.20;99.90;;;;;;5083172;28;19925;-70
2021/01/11 07:07:17;;;;;;;;;;;-0.20;99.90;;;;;;5073322;28;19983;-71
2021/01/11 07:09:49;;;;;;;;;;;-0.20;99.90;;;;;;5073041;28;19931;-70
2021/01/11 07:12:17;;;;;;;;;;;-0.20;99.90;;;;;;5072954;28;19928;-76
2021/01/11 07:14:53;;;;;;;;;;;-0.20;99.90;;;;;;5073194;28;19955;-75
2021/01/11 07:17:33;;;;;;;;;;;-0.20;99.90;;;;;;5072986;28;19947;-69
2021/01/11 07:20:01;;;;;;;;;;;-0.20;99.90;;;;;;5072828;28;19928;-72
2021/01/11 07:22:27;;;;;;;;;;;-0.20;99.90;;;;;;5086241;28;20010;-70
2021/01/11 07:24:53;;;;;;;;;;;-0.20;99.90;;;;;;5084954;28;19931;-70
2021/01/11 07:27:19;;;;;;;;;;;-0.20;99.90;;;;;;5072727;28;20443;-73
2021/01/11 07:29:46;;;;;;;;;;;-0.20;99.90;;;;;;5072520;28;19925;-70
2021/01/11 07:32:12;;;;;;;;;;;-0.20;99.90;;;;;;5080625;28;19924;-70
2021/01/11 07:34:38;;;;;;;;;;;-0.20;99.90;;;;;;5093153;28;19924;-70
2021/01/11 07:37:06;;;;;;;;;;;-0.10;99.90;;;;;;5093067;28;19957;-70
2021/01/11 07:39:33;;;;;;;;;;;-0.10;99.90;;;;;;5093035;28;20013;-68
2021/01/11 07:42:00;;;;;;;;;;;-0.10;99.90;;;;;;5092528;28;19928;-70
2021/01/11 07:44:27;;;;;;;;;;;0.00;99.90;;;;;;5092834;28;20301;-74
2021/01/11 07:46:57;;;;;;;;;;;0.00;99.90;;;;;;5092567;28;19954;-73
2021/01/11 07:49:23;;;;;;;;;;;0.00;99.90;;;;;;5092693;28;20372;-74
2021/01/11 07:51:50;;;;;;;;;;;0.00;99.90;;;;;;5082416;28;19924;-74
2021/01/11 07:54:17;;;;;;;;;;;0.00;99.90;;;;;;5071915;28;19924;-72
2021/01/11 07:56:44;;;;;;;;;;;0.00;99.90;;;;;;5072313;28;19925;-71
2021/01/11 07:59:10;;;;;;;;;;;0.00;99.90;;;;;;5072975;28;19931;-69
2021/01/11 08:01:39;;;;;;;;;;;0.10;99.90;;;;;;5071894;28;19924;-72
2021/01/11 08:04:05;;;;;;;;;;;0.10;99.90;;;;;;5072479;28;19924;-70
2021/01/11 08:06:42;;;;;;;;;;;0.10;99.90;;;;;;5072411;28;19924;-71
2021/01/11 08:09:08;;;;;;;;;;;0.10;99.90;;;;;;5072139;28;19924;-70
2021/01/11 08:11:35;;;;;;;;;;;0.10;99.90;;;;;;5071943;28;19990;-70
2021/01/11 08:14:04;;;;;;;;;;;0.10;99.90;;;;;;5072108;28;19932;-70
2021/01/11 08:16:30;;;;;;;;;;;0.20;99.90;;;;;;5072285;28;19924;-74
2021/01/11 08:19:02;;;;;;;;;;;0.20;99.90;;;;;;5072227;28;19947;-71
2021/01/11 08:21:28;;;;;;;;;;;0.20;99.90;;;;;;5071930;28;19925;-72
2021/01/11 08:23:59;;;;;;;;;;;0.20;99.90;;;;;;5072225;28;19925;-73
2021/01/11 08:26:26;;;;;;;;;;;0.20;99.90;;;;;;5072488;28;19925;-70
2021/01/11 08:28:54;;;;;;;;;;;0.20;99.90;;;;;;5072174;28;20286;-71
2021/01/11 08:31:20;;;;;;;;;;;0.30;99.90;;;;;;5076662;28;19931;-72
2021/01/11 08:33:46;;;;;;;;;;;0.30;99.90;;;;;;5071963;28;20364;-78
2021/01/11 08:36:19;;;;;;;;;;;0.30;99.90;;;;;;5084724;28;19978;-76
2021/01/11 08:39:01;;;;;;;;;;;0.30;99.90;;;;;;5092425;28;20292;-76
2021/01/11 08:41:28;;;;;;;;;;;0.40;99.90;;;;;;5092048;28;19924;-76
2021/01/11 08:43:55;;;;;;;;;;;0.40;99.90;;;;;;5092045;28;19928;-75
2021/01/11 08:46:21;;;;;;;;;;;0.40;99.90;;;;;;5087621;28;19930;-75
2021/01/11 08:48:47;;;;;;;;;;;0.40;99.90;;;;;;5071882;28;19924;-73
2021/01/11 08:51:24;;;;;;;;;;;0.50;99.90;;;;;;5071720;28;19982;-75
2021/01/11 08:53:50;;;;;;;;;;;0.50;99.90;;;;;;5071892;28;19924;-74
2021/01/11 08:56:26;;;;;;;;;;;0.60;99.90;;;;;;5071634;28;19954;-74
2021/01/11 08:58:53;;;;;;;;;;;0.50;99.90;;;;;;5089069;28;19924;-74
2021/01/11 09:01:22;;;;;;;;;;;0.50;99.90;;;;;;5091700;28;20018;-72
2021/01/11 09:03:50;;;;;;;;;;;0.50;99.90;;;;;;5092054;28;19924;-74
2021/01/11 09:06:31;;;;;;;;;;;0.60;99.90;;;;;;5092107;28;20377;-73
2021/01/11 09:09:03;;;;;;;;;;;0.60;99.90;;;;;;5095249;28;19924;-70
2021/01/11 09:11:28;;;;;;;;;;;0.60;99.90;;;;;;5095269;28;20395;-72
2021/01/11 09:14:03;;;;;;;;;;;0.60;99.90;;;;;;5095069;28;19939;-71
2021/01/11 09:16:31;;;;;;;;;;;0.60;99.90;;;;;;5095614;28;19931;-73
2021/01/11 09:19:04;;;;;;;;;;;0.60;99.90;;;;;;5095600;28;19925;-69
2021/01/11 09:21:29;;;;;;;;;;;0.60;99.90;;;;;;5095127;28;19924;-74
2021/01/11 09:23:55;;;;;;;;;;;0.70;99.90;;;;;;5095352;28;20277;-74
2021/01/11 09:26:21;;;;;;;;;;;0.80;99.90;;;;;;5095541;28;20022;-69
2021/01/11 09:28:47;;;;;;;;;;;0.70;99.90;;;;;;5095411;28;19925;-69
2021/01/11 09:31:13;;;;;;;;;;;0.80;99.90;;;;;;5087986;28;20066;-69
2021/01/11 09:33:40;;;;;;;;;;;0.80;99.90;;;;;;5095241;28;19924;-69
2021/01/11 09:36:06;;;;;;;;;;;0.80;99.90;;;;;;5095001;28;19931;-69
2021/01/11 09:38:32;;;;;;;;;;;0.80;99.90;;;;;;5095136;28;20276;-69
2021/01/11 09:40:59;;;;;;;;;;;0.80;99.90;;;;;;5094466;28;19943;-69
2021/01/11 09:43:25;;;;;;;;;;;0.90;99.90;;;;;;5095055;28;20296;-70
2021/01/11 09:45:51;;;;;;;;;;;0.90;99.90;;;;;;5095070;28;19931;-71
2021/01/11 09:48:17;;;;;;;;;;;1.00;99.90;;;;;;5093322;28;19970;-69
2021/01/11 09:50:43;;;;;;;;;;;0.90;99.90;;;;;;5094370;28;20322;-69
2021/01/11 09:53:11;;;;;;;;;;;1.00;99.90;;;;;;5094774;28;20022;-70
2021/01/11 09:55:37;;;;;;;;;;;1.00;99.90;;;;;;5094651;28;20269;-72
2021/01/11 09:58:04;;;;;;;;;;;1.00;99.90;;;;;;5094801;28;19924;-69
2021/01/11 10:00:30;;;;;;;;;;;1.00;99.90;;;;;;5079803;28;20007;-72
2021/01/11 10:02:56;;;;;;;;;;;1.00;99.90;;;;;;5085299;28;19924;-68
2021/01/11 10:05:23;;;;;;;;;;;1.00;99.90;;;;;;5094568;28;20436;-69
2021/01/11 10:07:50;;;;;;;;;;;1.10;99.90;;;;;;5095091;28;19954;-70
2021/01/11 10:10:16;;;;;;;;;;;1.20;99.90;;;;;;5093913;28;19924;-71
2021/01/11 10:12:42;;;;;;;;;;;1.30;99.90;;;;;;5094327;28;19931;-71
2021/01/11 10:15:09;;;;;;;;;;;1.30;99.90;;;;;;5086880;28;19924;-70
2021/01/11 10:17:37;;;;;;;;;;;1.30;99.90;;;;;;5073472;28;20381;-70
2021/01/11 10:20:03;;;;;;;;;;;1.30;99.90;;;;;;5073653;28;20450;-71
2021/01/11 10:22:30;;;;;;;;;;;1.30;99.90;;;;;;5073756;28;19936;-71
2021/01/11 10:24:56;;;;;;;;;;;1.30;99.90;;;;;;5073914;28;19925;-70
2021/01/11 10:27:22;;;;;;;;;;;1.40;99.90;;;;;;5073586;28;19931;-74
2021/01/11 10:29:48;;;;;;;;;;;1.30;99.90;;;;;;5077216;28;19925;-70
2021/01/11 10:32:15;;;;;;;;;;;1.30;99.90;;;;;;5073356;28;20141;-71
2021/01/11 10:34:41;;;;;;;;;;;1.30;99.90;;;;;;5073643;28;19931;-70
2021/01/11 10:37:07;;;;;;;;;;;1.30;99.90;;;;;;5073694;28;20385;-68
2021/01/11 10:39:33;;;;;;;;;;;1.40;99.90;;;;;;5073464;28;19925;-68
2021/01/11 10:42:00;;;;;;;;;;;1.50;99.90;;;;;;5073469;28;19925;-75
2021/01/11 10:44:26;;;;;;;;;;;1.50;99.90;;;;;;5073691;28;19932;-70
2021/01/11 10:46:53;;;;;;;;;;;1.50;99.90;;;;;;5073529;28;19932;-72
2021/01/11 10:49:19;;;;;;;;;;;1.50;99.90;;;;;;5073456;28;19931;-73
2021/01/11 10:51:45;;;;;;;;;;;1.60;99.90;;;;;;5072985;28;19929;-73
2021/01/11 10:54:12;;;;;;;;;;;1.60;99.90;;;;;;5073147;28;20451;-73
2021/01/11 10:56:38;;;;;;;;;;;1.70;99.90;;;;;;5077153;28;19924;-69
2021/01/11 10:59:04;;;;;;;;;;;1.70;99.90;;;;;;5093516;28;20347;-69
2021/01/11 11:01:30;;;;;;;;;;;1.70;99.90;;;;;;5093269;28;20009;-70
2021/01/11 11:03:56;;;;;;;;;;;1.60;99.90;;;;;;5093418;28;20412;-71
2021/01/11 11:06:25;;;;;;;;;;;1.50;99.90;;;;;;5087014;28;19926;-70
2021/01/11 11:08:51;;;;;;;;;;;1.60;99.90;;;;;;5073288;28;19924;-71
2021/01/11 11:11:17;;;;;;;;;;;1.50;99.90;;;;;;5073045;28;20347;-71
2021/01/11 11:13:43;;;;;;;;;;;1.50;99.90;;;;;;5072738;28;19932;-71
2021/01/11 11:16:11;;;;;;;;;;;1.60;99.90;;;;;;5073057;28;19932;-72
2021/01/11 11:18:37;;;;;;;;;;;1.60;99.90;;;;;;5072815;28;19970;-74
2021/01/11 11:21:04;;;;;;;;;;;1.60;99.90;;;;;;5072920;28;19986;-72
2021/01/11 11:23:30;;;;;;;;;;;1.60;99.90;;;;;;5074562;28;20447;-75
2021/01/11 11:25:56;;;;;;;;;;;1.60;99.90;;;;;;5113384;28;19995;-73
2021/01/11 11:28:22;;;;;;;;;;;1.60;99.90;;;;;;5113319;28;19924;-69
2021/01/11 11:30:48;;;;;;;;;;;1.60;99.90;;;;;;5112220;28;19924;-73
2021/01/11 11:33:15;;;;;;;;;;;1.50;99.90;;;;;;5113014;28;19924;-73
2021/01/11 11:35:41;;;;;;;;;;;1.50;99.90;;;;;;5113142;28;20319;-73
2021/01/11 11:38:08;;;;;;;;;;;1.50;99.90;;;;;;5111795;28;19924;-73
2021/01/11 11:40:34;;;;;;;;;;;1.50;99.90;;;;;;5072290;28;19925;-73
2021/01/11 11:43:00;;;;;;;;;;;1.50;99.90;;;;;;5072379;28;19925;-73
2021/01/11 11:45:26;;;;;;;;;;;1.60;99.90;;;;;;5072333;28;19935;-73
2021/01/11 11:47:52;;;;;;;;;;;1.60;99.90;;;;;;5072463;28;19993;-73
2021/01/11 11:50:19;;;;;;;;;;;1.70;99.90;;;;;;5072047;28;20387;-73
2021/01/11 11:52:45;;;;;;;;;;;1.70;99.90;;;;;;5086045;28;19928;-73
2021/01/11 11:55:11;;;;;;;;;;;1.60;99.90;;;;;;5092026;28;19973;-73
2021/01/11 11:57:38;;;;;;;;;;;1.60;99.90;;;;;;5072303;28;19924;-73
2021/01/11 12:00:05;;;;;;;;;;;1.70;99.90;;;;;;5072078;28;19994;-73
2021/01/11 12:02:31;;;;;;;;;;;1.60;99.90;;;;;;5072442;28;19971;-74
2021/01/11 12:04:57;;;;;;;;;;;1.60;99.90;;;;;;5072428;28;19924;-73
2021/01/11 12:07:26;;;;;;;;;;;1.70;99.90;;;;;;5088467;28;19939;-73
2021/01/11 12:09:54;;;;;;;;;;;1.70;99.90;;;;;;5092084;28;19931;-73
2021/01/11 12:12:20;;;;;;;;;;;1.60;99.90;;;;;;5092099;28;20024;-73
2021/01/11 12:14:46;;;;;;;;;;;1.60;99.90;;;;;;5092226;28;19924;-73
2021/01/11 12:17:12;;;;;;;;;;;1.70;99.90;;;;;;5092526;28;19924;-73
2021/01/11 12:19:38;;;;;;;;;;;1.60;99.90;;;;;;5090740;28;19931;-73
2021/01/11 12:22:04;;;;;;;;;;;1.60;99.90;;;;;;5092162;28;19969;-72
2021/01/11 12:24:31;;;;;;;;;;;1.60;99.90;;;;;;5093874;28;19954;-73
2021/01/11 12:26:57;;;;;;;;;;;1.60;99.90;;;;;;5092359;28;19924;-71
2021/01/11 12:29:23;;;;;;;;;;;1.70;99.90;;;;;;5092660;28;19930;-68
2021/01/11 12:31:50;;;;;;;;;;;1.70;99.90;;;;;;5091769;28;19924;-71
2021/01/11 12:34:16;;;;;;;;;;;1.70;99.90;;;;;;5092073;28;19983;-71
2021/01/11 12:36:42;;;;;;;;;;;1.70;99.90;;;;;;5092270;28;20372;-75
2021/01/11 12:39:09;;;;;;;;;;;2.00;99.90;;;;;;5091929;28;19931;-73
2021/01/11 12:41:36;;;;;;;;;;;2.30;99.90;;;;;;5073958;28;19997;-78
2021/01/11 12:44:04;;;;;;;;;;;2.50;99.90;;;;;;5076242;28;20284;-74
2021/01/11 12:46:30;;;;;;;;;;;2.50;99.90;;;;;;5075778;28;19928;-73
2021/01/11 12:48:56;;;;;;;;;;;2.50;99.90;;;;;;5076292;28;19985;-71
2021/01/11 12:51:25;;;;;;;;;;;2.20;99.90;;;;;;5075515;28;19931;-71
2021/01/11 12:53:52;;;;;;;;;;;2.10;99.90;;;;;;5091994;28;19924;-72
2021/01/11 12:56:19;;;;;;;;;;;2.00;99.90;;;;;;5088279;28;19925;-73
2021/01/11 12:58:46;;;;;;;;;;;1.90;99.90;;;;;;5078552;28;20365;-69
2021/01/11 13:01:16;;;;;;;;;;;1.80;99.90;;;;;;5089433;28;19925;-74
2021/01/11 13:03:42;;;;;;;;;;;1.80;99.90;;;;;;5075633;28;19954;-72
2021/01/11 13:06:08;;;;;;;;;;;1.80;99.90;;;;;;5075505;28;19924;-72
2021/01/11 13:08:34;;;;;;;;;;;1.80;99.90;;;;;;5075313;28;19929;-72
2021/01/11 13:11:00;;;;;;;;;;;1.80;99.90;;;;;;5075123;28;20347;-69
2021/01/11 13:13:26;;;;;;;;;;;1.60;99.90;;;;;;5075040;28;19935;-70
2021/01/11 13:15:53;;;;;;;;;;;1.60;99.90;;;;;;5075457;28;19924;-70
2021/01/11 13:18:19;;;;;;;;;;;1.60;99.90;;;;;;5075467;28;19963;-71
2021/01/11 13:20:45;;;;;;;;;;;1.60;99.90;;;;;;5074867;28;20024;-71
2021/01/11 13:23:14;;;;;;;;;;;1.60;99.90;;;;;;5074898;28;20049;-73
2021/01/11 13:25:40;;;;;;;;;;;1.60;99.90;;;;;;5075123;28;19994;-74
2021/01/11 13:28:06;;;;;;;;;;;1.60;99.90;;;;;;5090549;28;20400;-72
2021/01/11 13:30:37;;;;;;;;;;;1.60;99.90;;;;;;5095140;28;19978;-74
2021/01/11 13:33:04;;;;;;;;;;;1.60;99.90;;;;;;5095268;28;19947;-70
2021/01/11 13:35:30;;;;;;;;;;;1.70;99.90;;;;;;5081803;28;19974;-71
2021/01/11 13:37:56;;;;;;;;;;;1.60;99.90;;;;;;5095325;28;20346;-71
2021/01/11 13:40:22;;;;;;;;;;;1.60;99.90;;;;;;5094828;28;19977;-71
2021/01/11 13:42:48;;;;;;;;;;;1.60;99.90;;;;;;5094827;28;19924;-71
2021/01/11 13:45:14;;;;;;;;;;;1.60;99.90;;;;;;5095138;28;19924;-71
2021/01/11 13:47:44;;;;;;;;;;;1.60;99.90;;;;;;5094546;28;19924;-72
2021/01/11 13:50:15;;;;;;;;;;;1.60;99.90;;;;;;5094513;28;20342;-71
2021/01/11 13:52:41;;;;;;;;;;;1.60;99.90;;;;;;5094014;28;19968;-71
2021/01/11 13:55:08;;;;;;;;;;;1.60;99.90;;;;;;5094454;28;19947;-71
2021/01/11 13:57:34;;;;;;;;;;;1.50;99.90;;;;;;5094914;28;19951;-71
2021/01/11 14:00:00;;;;;;;;;;;1.50;99.90;;;;;;5094430;28;19965;-71
2021/01/11 14:02:26;;;;;;;;;;;1.40;99.90;;;;;;5094900;28;20444;-71
2021/01/11 14:04:52;;;;;;;;;;;1.40;99.90;;;;;;5094235;28;19946;-71
2021/01/11 14:07:18;;;;;;;;;;;1.30;99.90;;;;;;5094315;28;19924;-71
2021/01/11 14:09:44;;;;;;;;;;;1.30;99.90;;;;;;5094433;28;20392;-72
2021/01/11 14:12:10;;;;;;;;;;;1.20;99.90;;;;;;5094286;28;19998;-71
2021/01/11 14:14:36;;;;;;;;;;;1.20;99.90;;;;;;5094677;28;19951;-71
2021/01/11 14:17:02;;;;;;;;;;;1.20;99.90;;;;;;5094224;28;20405;-71
2021/01/11 14:19:28;;;;;;;;;;;1.20;99.90;;;;;;5094406;28;19924;-71
2021/01/11 14:21:54;;;;;;;;;;;1.10;99.90;;;;;;5093752;28;20391;-71
2021/01/11 14:24:21;;;;;;;;;;;1.20;99.90;;;;;;5094895;28;19924;-71
2021/01/11 14:26:47;;;;;;;;;;;1.30;99.90;;;;;;5090897;28;19925;-71